GEC8472 VABB-VHHH
Flight info
| Callsign | GEC8472 |
|---|---|
| Flight time | 4h 55m |
| Altitude | 37000 |
| Route | ANOLI2A NONEN Q19 CEA B465 CTG A599 LINSO/K0895S1130 A599 POU R473 SIERA |
| Aircraft | B77L/H-SDE1E2E3FGHIJ2J3J4J5M1RWXY/LB1D1 |
Departure
| Time | 2026-05-04 18:03 |
|---|---|
| Airport | Chhatrapati Shivaji Maharaj International Airport (VABB) |
Arrival
| Time | 2026-05-04 22:58 |
|---|---|
| Airport | Hong Kong International Airport (VHHH) |
| Time | Latitude | Longitude | Altitude | Speed | Heading |
|---|---|---|---|---|---|
| 2026-05-04 17:36 | 19.09515 | 72.86746 | 47 ft | 0 kts | 321° |
| 2026-05-04 17:50 | 19.09510 | 72.86750 | 50 ft | 4 kts | 321° |
| 2026-05-04 17:50 | 19.09489 | 72.86768 | 47 ft | 4 kts | 321° |
| 2026-05-04 17:51 | 19.09470 | 72.86784 | 46 ft | 3 kts | 320° |
| 2026-05-04 17:51 | 19.09456 | 72.86803 | 48 ft | 4 kts | 263° |
| 2026-05-04 17:51 | 19.09467 | 72.86826 | 46 ft | 3 kts | 227° |
| 2026-05-04 17:51 | 19.09477 | 72.86836 | 50 ft | 1 kts | 229° |
| 2026-05-04 17:52 | 19.09477 | 72.86837 | 49 ft | 2 kts | 229° |
| 2026-05-04 17:54 | 19.09453 | 72.86807 | 49 ft | 9 kts | 230° |
| 2026-05-04 17:55 | 19.09414 | 72.86759 | 51 ft | 9 kts | 229° |
| 2026-05-04 17:55 | 19.09373 | 72.86712 | 47 ft | 9 kts | 229° |
| 2026-05-04 17:55 | 19.09333 | 72.86663 | 49 ft | 9 kts | 229° |
| 2026-05-04 17:55 | 19.09286 | 72.86627 | 51 ft | 9 kts | 188° |
| 2026-05-04 17:56 | 19.09231 | 72.86653 | 48 ft | 9 kts | 144° |
| 2026-05-04 17:56 | 19.09185 | 72.86703 | 53 ft | 12 kts | 133° |
| 2026-05-04 17:56 | 19.09125 | 72.86768 | 50 ft | 12 kts | 134° |
| 2026-05-04 17:56 | 19.09068 | 72.86834 | 51 ft | 12 kts | 124° |
| 2026-05-04 17:57 | 19.09045 | 72.86920 | 54 ft | 12 kts | 93° |
| 2026-05-04 17:57 | 19.09046 | 72.87010 | 54 ft | 12 kts | 88° |
| 2026-05-04 17:57 | 19.09048 | 72.87100 | 50 ft | 12 kts | 89° |
| 2026-05-04 17:57 | 19.09049 | 72.87190 | 50 ft | 12 kts | 89° |
| 2026-05-04 17:58 | 19.09050 | 72.87281 | 50 ft | 12 kts | 89° |
| 2026-05-04 17:58 | 19.09051 | 72.87371 | 49 ft | 12 kts | 89° |
| 2026-05-04 17:58 | 19.09052 | 72.87461 | 49 ft | 12 kts | 89° |
| 2026-05-04 17:58 | 19.09052 | 72.87551 | 49 ft | 12 kts | 89° |
| 2026-05-04 17:59 | 19.09054 | 72.87645 | 48 ft | 13 kts | 88° |
| 2026-05-04 17:59 | 19.09056 | 72.87739 | 48 ft | 13 kts | 89° |
| 2026-05-04 17:59 | 19.09058 | 72.87928 | 48 ft | 13 kts | 89° |
| 2026-05-04 18:00 | 19.09056 | 72.88020 | 49 ft | 12 kts | 104° |
| 2026-05-04 18:00 | 19.09026 | 72.88046 | 52 ft | 2 kts | 159° |
| 2026-05-04 18:00 | 19.09009 | 72.88051 | 49 ft | 3 kts | 166° |
| 2026-05-04 18:00 | 19.08981 | 72.88053 | 48 ft | 5 kts | 180° |
| 2026-05-04 18:01 | 19.08934 | 72.88049 | 51 ft | 8 kts | 189° |
| 2026-05-04 18:01 | 19.08892 | 72.88010 | 50 ft | 9 kts | 258° |
| 2026-05-04 18:01 | 19.08886 | 72.87901 | 52 ft | 12 kts | 269° |
| 2026-05-04 18:02 | 19.08886 | 72.87826 | 52 ft | 29 kts | 270° |
| 2026-05-04 18:02 | 19.08880 | 72.87325 | 55 ft | 104 kts | 269° |
| 2026-05-04 18:02 | 19.08862 | 72.86334 | 54 ft | 162 kts | 267° |
| 2026-05-04 18:02 | 19.08787 | 72.85053 | 412 ft | 176 kts | 265° |
| 2026-05-04 18:03 | 19.08717 | 72.83732 | 881 ft | 188 kts | 267° |
| 2026-05-04 18:03 | 19.08674 | 72.82329 | 1492 ft | 189 kts | 266° |
| 2026-05-04 18:03 | 19.08671 | 72.80891 | 1983 ft | 207 kts | 268° |
| 2026-05-04 18:03 | 19.08676 | 72.79259 | 2232 ft | 235 kts | 268° |
| 2026-05-04 18:04 | 19.08673 | 72.77486 | 2820 ft | 249 kts | 268° |
| 2026-05-04 18:04 | 19.08658 | 72.75631 | 3567 ft | 254 kts | 269° |
| 2026-05-04 18:04 | 19.09845 | 72.72160 | 5004 ft | 268 kts | 317° |
| 2026-05-04 18:05 | 19.11485 | 72.71219 | 5831 ft | 274 kts | 343° |
| 2026-05-04 18:05 | 19.13407 | 72.71166 | 6584 ft | 284 kts | 12° |
| 2026-05-04 18:05 | 19.13941 | 72.71335 | 6778 ft | 287 kts | 20° |
| 2026-05-04 18:06 | 19.16762 | 72.73521 | 7812 ft | 297 kts | 31° |
| 2026-05-04 18:06 | 19.18626 | 72.74456 | 8610 ft | 297 kts | 15° |
| 2026-05-04 18:06 | 19.20651 | 72.74764 | 9394 ft | 295 kts | 358° |
| 2026-05-04 18:07 | 19.22713 | 72.74580 | 9827 ft | 300 kts | 353° |
| 2026-05-04 18:07 | 19.24829 | 72.74350 | 9826 ft | 307 kts | 359° |
| 2026-05-04 18:07 | 19.26907 | 72.74836 | 10260 ft | 315 kts | 27° |
| 2026-05-04 18:07 | 19.28788 | 72.76145 | 10428 ft | 336 kts | 36° |
| 2026-05-04 18:08 | 19.30755 | 72.77654 | 10627 ft | 362 kts | 36° |
| 2026-05-04 18:08 | 19.32868 | 72.79243 | 10916 ft | 382 kts | 34° |
| 2026-05-04 18:08 | 19.35075 | 72.80875 | 11538 ft | 392 kts | 33° |
| 2026-05-04 18:08 | 19.37327 | 72.82519 | 12417 ft | 395 kts | 33° |
| 2026-05-04 18:09 | 19.41900 | 72.85830 | 14110 ft | 403 kts | 32° |
| 2026-05-04 18:09 | 19.46010 | 72.89882 | 15386 ft | 416 kts | 58° |
| 2026-05-04 18:10 | 19.47142 | 72.92715 | 16170 ft | 420 kts | 74° |
| 2026-05-04 18:10 | 19.47729 | 72.95742 | 16856 ft | 423 kts | 78° |
| 2026-05-04 18:10 | 19.48297 | 72.98826 | 17465 ft | 429 kts | 77° |
| 2026-05-04 18:10 | 19.48904 | 73.01936 | 18179 ft | 433 kts | 77° |
| 2026-05-04 18:11 | 19.49531 | 73.05023 | 18804 ft | 436 kts | 76° |
| 2026-05-04 18:11 | 19.50181 | 73.08174 | 19386 ft | 440 kts | 76° |
| 2026-05-04 18:11 | 19.50853 | 73.11356 | 19936 ft | 445 kts | 76° |
| 2026-05-04 18:11 | 19.51540 | 73.14578 | 20491 ft | 450 kts | 76° |
| 2026-05-04 18:12 | 19.52231 | 73.17824 | 21053 ft | 454 kts | 76° |
| 2026-05-04 18:12 | 19.52928 | 73.21107 | 21605 ft | 459 kts | 76° |
| 2026-05-04 18:12 | 19.53628 | 73.24423 | 22158 ft | 463 kts | 76° |
| 2026-05-04 18:12 | 19.54333 | 73.27766 | 22684 ft | 467 kts | 76° |
| 2026-05-04 18:13 | 19.55044 | 73.31145 | 23207 ft | 472 kts | 76° |
| 2026-05-04 18:13 | 19.55762 | 73.34560 | 23633 ft | 477 kts | 76° |
| 2026-05-04 18:13 | 19.56713 | 73.41582 | 24510 ft | 485 kts | 83° |
| 2026-05-04 18:14 | 19.57032 | 73.45146 | 24929 ft | 488 kts | 83° |
| 2026-05-04 18:14 | 19.57359 | 73.48739 | 25343 ft | 491 kts | 82° |
| 2026-05-04 18:14 | 19.57702 | 73.52352 | 25749 ft | 494 kts | 82° |
| 2026-05-04 18:15 | 19.58420 | 73.59651 | 26525 ft | 501 kts | 82° |
| 2026-05-04 18:15 | 19.59484 | 73.66973 | 27232 ft | 505 kts | 72° |
| 2026-05-04 18:15 | 19.60555 | 73.70523 | 27604 ft | 506 kts | 67° |
| 2026-05-04 18:16 | 19.61940 | 73.73950 | 27954 ft | 505 kts | 60° |
| 2026-05-04 18:16 | 19.63605 | 73.77232 | 28293 ft | 507 kts | 58° |
| 2026-05-04 18:16 | 19.65316 | 73.80514 | 28642 ft | 510 kts | 58° |
| 2026-05-04 18:17 | 19.68735 | 73.87145 | 29253 ft | 515 kts | 58° |
| 2026-05-04 18:17 | 19.70433 | 73.90502 | 29578 ft | 517 kts | 59° |
| 2026-05-04 18:17 | 19.73817 | 73.97240 | 30269 ft | 517 kts | 59° |
| 2026-05-04 18:18 | 19.75506 | 74.00618 | 30556 ft | 519 kts | 60° |
| 2026-05-04 18:18 | 19.77022 | 74.04116 | 30771 ft | 524 kts | 65° |
| 2026-05-04 18:18 | 19.78327 | 74.07737 | 31082 ft | 525 kts | 67° |
| 2026-05-04 18:18 | 19.79598 | 74.11369 | 31462 ft | 525 kts | 67° |
| 2026-05-04 18:19 | 19.82137 | 74.18623 | 32205 ft | 524 kts | 67° |
| 2026-05-04 18:19 | 19.83422 | 74.22245 | 32563 ft | 524 kts | 67° |
| 2026-05-04 18:19 | 19.84715 | 74.25868 | 32922 ft | 524 kts | 67° |
| 2026-05-04 18:20 | 19.86012 | 74.29485 | 33293 ft | 524 kts | 68° |
| 2026-05-04 18:20 | 19.87310 | 74.33107 | 33663 ft | 524 kts | 68° |
| 2026-05-04 18:20 | 19.88609 | 74.36730 | 34011 ft | 525 kts | 68° |
| 2026-05-04 18:20 | 19.89907 | 74.40357 | 34290 ft | 526 kts | 68° |
| 2026-05-04 18:21 | 19.91202 | 74.43984 | 34627 ft | 525 kts | 68° |
| 2026-05-04 18:21 | 19.92498 | 74.47616 | 34904 ft | 527 kts | 68° |
| 2026-05-04 18:21 | 19.93801 | 74.51270 | 35086 ft | 529 kts | 68° |
| 2026-05-04 18:21 | 19.95100 | 74.54919 | 35481 ft | 527 kts | 68° |
| 2026-05-04 18:22 | 19.96392 | 74.58550 | 35911 ft | 523 kts | 68° |
| 2026-05-04 18:22 | 19.97674 | 74.62155 | 36326 ft | 521 kts | 68° |
| 2026-05-04 18:22 | 19.98952 | 74.65751 | 36707 ft | 519 kts | 67° |
| 2026-05-04 18:22 | 20.00212 | 74.69294 | 36905 ft | 522 kts | 67° |
| 2026-05-04 18:23 | 20.02861 | 74.76580 | 36866 ft | 524 kts | 66° |
| 2026-05-04 18:23 | 20.05519 | 74.83740 | 36854 ft | 517 kts | 66° |
| 2026-05-04 18:24 | 20.08135 | 74.90806 | 36866 ft | 516 kts | 66° |
| 2026-05-04 18:24 | 20.10750 | 74.97910 | 36871 ft | 516 kts | 66° |
| 2026-05-04 18:25 | 20.13363 | 75.05029 | 36872 ft | 517 kts | 66° |
| 2026-05-04 18:25 | 20.15977 | 75.12162 | 36872 ft | 518 kts | 67° |
| 2026-05-04 18:26 | 20.18595 | 75.19314 | 36879 ft | 520 kts | 67° |
| 2026-05-04 18:26 | 20.21221 | 75.26500 | 36877 ft | 522 kts | 67° |
| 2026-05-04 18:27 | 20.23854 | 75.33715 | 36873 ft | 524 kts | 67° |
| 2026-05-04 18:27 | 20.26494 | 75.40960 | 36871 ft | 525 kts | 67° |
| 2026-05-04 18:28 | 20.29136 | 75.48222 | 36867 ft | 526 kts | 67° |
| 2026-05-04 18:28 | 20.31000 | 75.54396 | 36875 ft | 527 kts | 73° |
| 2026-05-04 18:29 | 20.32955 | 75.61920 | 36868 ft | 527 kts | 73° |
| 2026-05-04 18:29 | 20.34916 | 75.69456 | 36859 ft | 527 kts | 73° |
| 2026-05-04 18:30 | 20.37904 | 75.80725 | 36857 ft | 526 kts | 73° |
| 2026-05-04 18:31 | 20.39892 | 75.88225 | 36860 ft | 525 kts | 73° |
| 2026-05-04 18:31 | 20.41870 | 75.95712 | 36847 ft | 524 kts | 73° |
| 2026-05-04 18:32 | 20.43856 | 76.03189 | 36848 ft | 524 kts | 72° |
| 2026-05-04 18:32 | 20.45911 | 76.10628 | 36842 ft | 523 kts | 72° |
| 2026-05-04 18:33 | 20.47980 | 76.18064 | 36848 ft | 523 kts | 72° |
| 2026-05-04 18:33 | 20.50035 | 76.25499 | 36838 ft | 523 kts | 72° |
| 2026-05-04 18:34 | 20.52078 | 76.32939 | 36838 ft | 523 kts | 72° |
| 2026-05-04 18:34 | 20.54118 | 76.40385 | 36825 ft | 523 kts | 72° |
| 2026-05-04 18:35 | 20.56154 | 76.47830 | 36834 ft | 523 kts | 72° |
| 2026-05-04 18:35 | 20.58189 | 76.55281 | 36820 ft | 523 kts | 73° |
| 2026-05-04 18:36 | 20.60221 | 76.62736 | 36820 ft | 523 kts | 73° |
| 2026-05-04 18:36 | 20.62251 | 76.70197 | 36827 ft | 524 kts | 73° |
| 2026-05-04 18:37 | 20.64281 | 76.77670 | 36815 ft | 525 kts | 73° |
| 2026-05-04 18:37 | 20.66313 | 76.85166 | 36812 ft | 526 kts | 73° |
| 2026-05-04 18:38 | 20.68346 | 76.92677 | 36805 ft | 527 kts | 73° |
| 2026-05-04 18:38 | 20.70377 | 77.00198 | 36808 ft | 527 kts | 73° |
| 2026-05-04 18:39 | 20.72395 | 77.07683 | 36808 ft | 528 kts | 73° |
| 2026-05-04 18:39 | 20.74423 | 77.15221 | 36799 ft | 528 kts | 73° |
| 2026-05-04 18:40 | 20.76448 | 77.22764 | 36809 ft | 528 kts | 73° |
| 2026-05-04 18:40 | 20.78469 | 77.30303 | 36804 ft | 528 kts | 73° |
| 2026-05-04 18:41 | 20.80485 | 77.37840 | 36802 ft | 527 kts | 73° |
| 2026-05-04 18:41 | 20.82495 | 77.45369 | 36802 ft | 526 kts | 73° |
| 2026-05-04 18:42 | 20.84502 | 77.52897 | 36805 ft | 526 kts | 73° |
| 2026-05-04 18:42 | 20.86519 | 77.60409 | 36804 ft | 526 kts | 73° |
| 2026-05-04 18:43 | 20.88574 | 77.67902 | 36803 ft | 525 kts | 73° |
| 2026-05-04 18:43 | 20.90623 | 77.75396 | 36805 ft | 525 kts | 73° |
| 2026-05-04 18:44 | 20.92669 | 77.82881 | 36810 ft | 524 kts | 73° |
| 2026-05-04 18:44 | 20.94795 | 77.90342 | 36801 ft | 524 kts | 72° |
| 2026-05-04 18:45 | 20.96940 | 77.97803 | 36810 ft | 524 kts | 73° |
| 2026-05-04 18:45 | 20.99071 | 78.05268 | 36814 ft | 525 kts | 73° |
| 2026-05-04 18:46 | 21.01189 | 78.12738 | 36813 ft | 525 kts | 73° |
| 2026-05-04 18:46 | 21.03305 | 78.20222 | 36812 ft | 525 kts | 73° |
| 2026-05-04 18:47 | 21.05420 | 78.27707 | 36815 ft | 526 kts | 73° |
| 2026-05-04 18:47 | 21.07533 | 78.35200 | 36827 ft | 526 kts | 73° |
| 2026-05-04 18:48 | 21.09646 | 78.42707 | 36816 ft | 527 kts | 73° |
| 2026-05-04 18:48 | 21.11762 | 78.50235 | 36817 ft | 528 kts | 73° |
| 2026-05-04 18:49 | 21.13872 | 78.57762 | 36817 ft | 528 kts | 73° |
| 2026-05-04 18:49 | 21.15983 | 78.65303 | 36823 ft | 529 kts | 73° |
| 2026-05-04 18:50 | 21.18093 | 78.72853 | 36812 ft | 529 kts | 73° |
| 2026-05-04 18:50 | 21.20188 | 78.80399 | 36815 ft | 529 kts | 73° |
| 2026-05-04 18:51 | 21.22270 | 78.87955 | 36809 ft | 529 kts | 73° |
| 2026-05-04 18:51 | 21.24334 | 78.95462 | 36806 ft | 528 kts | 73° |
| 2026-05-04 18:52 | 21.26411 | 79.03021 | 36806 ft | 528 kts | 73° |
| 2026-05-04 18:52 | 21.28483 | 79.10574 | 36800 ft | 528 kts | 73° |
| 2026-05-04 18:53 | 21.30552 | 79.18128 | 36801 ft | 528 kts | 73° |
| 2026-05-04 18:53 | 21.32617 | 79.25688 | 36803 ft | 528 kts | 73° |
| 2026-05-04 18:54 | 21.34678 | 79.33244 | 36802 ft | 528 kts | 73° |
| 2026-05-04 18:54 | 21.36736 | 79.40801 | 36797 ft | 528 kts | 73° |
| 2026-05-04 18:55 | 21.38792 | 79.48367 | 36791 ft | 528 kts | 74° |
| 2026-05-04 18:55 | 21.41866 | 79.59710 | 36795 ft | 528 kts | 74° |
| 2026-05-04 18:56 | 21.43912 | 79.67276 | 36797 ft | 528 kts | 74° |
| 2026-05-04 18:56 | 21.45954 | 79.74844 | 36793 ft | 528 kts | 74° |
| 2026-05-04 18:57 | 21.47981 | 79.82369 | 36783 ft | 528 kts | 74° |
| 2026-05-04 18:57 | 21.50029 | 79.89987 | 36798 ft | 527 kts | 74° |
| 2026-05-04 18:58 | 21.52047 | 79.97510 | 36791 ft | 528 kts | 74° |
| 2026-05-04 18:58 | 21.54077 | 80.05090 | 36788 ft | 528 kts | 74° |
| 2026-05-04 18:59 | 21.56104 | 80.12676 | 36793 ft | 529 kts | 74° |
| 2026-05-04 18:59 | 21.58129 | 80.20273 | 36793 ft | 528 kts | 74° |
| 2026-05-04 19:00 | 21.60162 | 80.27853 | 36790 ft | 528 kts | 73° |
| 2026-05-04 19:00 | 21.62357 | 80.35382 | 36800 ft | 528 kts | 72° |
| 2026-05-04 19:01 | 21.64584 | 80.42895 | 36807 ft | 527 kts | 73° |
| 2026-05-04 19:01 | 21.66775 | 80.50420 | 36816 ft | 527 kts | 73° |
| 2026-05-04 19:02 | 21.68935 | 80.57946 | 36812 ft | 527 kts | 74° |
| 2026-05-04 19:02 | 21.70966 | 80.65515 | 36820 ft | 527 kts | 75° |
| 2026-05-04 19:03 | 21.72962 | 80.73099 | 36824 ft | 527 kts | 75° |
| 2026-05-04 19:03 | 21.74973 | 80.80679 | 36814 ft | 527 kts | 74° |
| 2026-05-04 19:04 | 21.76993 | 80.88260 | 36823 ft | 527 kts | 74° |
| 2026-05-04 19:04 | 21.79013 | 80.95845 | 36826 ft | 527 kts | 75° |
| 2026-05-04 19:05 | 21.81028 | 81.03435 | 36828 ft | 528 kts | 75° |
| 2026-05-04 19:05 | 21.83042 | 81.11039 | 36821 ft | 528 kts | 75° |
| 2026-05-04 19:06 | 21.85050 | 81.18635 | 36819 ft | 528 kts | 75° |
| 2026-05-04 19:06 | 21.87057 | 81.26241 | 36807 ft | 528 kts | 75° |
| 2026-05-04 19:07 | 21.89058 | 81.33842 | 36814 ft | 528 kts | 75° |
| 2026-05-04 19:07 | 21.91056 | 81.41445 | 36814 ft | 528 kts | 75° |
| 2026-05-04 19:08 | 21.93051 | 81.49049 | 36814 ft | 528 kts | 75° |
| 2026-05-04 19:08 | 21.95091 | 81.56648 | 36815 ft | 528 kts | 75° |
| 2026-05-04 19:09 | 21.97150 | 81.64230 | 36808 ft | 528 kts | 75° |
| 2026-05-04 19:09 | 21.99199 | 81.71811 | 36821 ft | 527 kts | 75° |
| 2026-05-04 19:10 | 22.01221 | 81.79337 | 36816 ft | 526 kts | 75° |
| 2026-05-04 19:10 | 22.03261 | 81.86949 | 36826 ft | 525 kts | 75° |
| 2026-05-04 19:11 | 22.05270 | 81.94461 | 36821 ft | 525 kts | 75° |
| 2026-05-04 19:11 | 22.07286 | 82.02013 | 36833 ft | 524 kts | 75° |
| 2026-05-04 19:12 | 22.10303 | 82.13342 | 36827 ft | 524 kts | 75° |
| 2026-05-04 19:13 | 22.12312 | 82.20901 | 36836 ft | 524 kts | 75° |
| 2026-05-04 19:13 | 22.14318 | 82.28470 | 36832 ft | 525 kts | 75° |
| 2026-05-04 19:14 | 22.16321 | 82.36039 | 36839 ft | 525 kts | 75° |
| 2026-05-04 19:14 | 22.18320 | 82.43611 | 36834 ft | 525 kts | 75° |
| 2026-05-04 19:15 | 22.20314 | 82.51178 | 36836 ft | 524 kts | 75° |
| 2026-05-04 19:15 | 22.22301 | 82.58733 | 36842 ft | 523 kts | 75° |
| 2026-05-04 19:16 | 22.23949 | 82.65013 | 36851 ft | 523 kts | 75° |
| 2026-05-04 19:16 | 22.25929 | 82.72563 | 36852 ft | 523 kts | 75° |
| 2026-05-04 19:17 | 22.27966 | 82.80097 | 36852 ft | 522 kts | 74° |
| 2026-05-04 19:17 | 22.30034 | 82.87617 | 36857 ft | 522 kts | 74° |
| 2026-05-04 19:18 | 22.32094 | 82.95140 | 36869 ft | 523 kts | 75° |
| 2026-05-04 19:18 | 22.34146 | 83.02687 | 36874 ft | 524 kts | 75° |
| 2026-05-04 19:19 | 22.36190 | 83.10238 | 36878 ft | 524 kts | 75° |
| 2026-05-04 19:19 | 22.38236 | 83.17806 | 36877 ft | 525 kts | 75° |
| 2026-05-04 19:20 | 22.40280 | 83.25380 | 36873 ft | 525 kts | 75° |
| 2026-05-04 19:20 | 22.42322 | 83.32960 | 36875 ft | 525 kts | 75° |
| 2026-05-04 19:21 | 22.44329 | 83.40427 | 36866 ft | 526 kts | 75° |
| 2026-05-04 19:21 | 22.46365 | 83.48013 | 36884 ft | 526 kts | 75° |
| 2026-05-04 19:22 | 22.48398 | 83.55606 | 36908 ft | 525 kts | 75° |
| 2026-05-04 19:22 | 22.50425 | 83.63193 | 36892 ft | 525 kts | 75° |
| 2026-05-04 19:23 | 22.52434 | 83.70728 | 36892 ft | 525 kts | 75° |
| 2026-05-04 19:23 | 22.54465 | 83.78359 | 36906 ft | 524 kts | 75° |
| 2026-05-04 19:24 | 22.56464 | 83.85890 | 36898 ft | 524 kts | 75° |
| 2026-05-04 19:24 | 22.58472 | 83.93466 | 36907 ft | 524 kts | 75° |
| 2026-05-04 19:25 | 22.60474 | 84.01038 | 36916 ft | 523 kts | 75° |
| 2026-05-04 19:25 | 22.62473 | 84.08610 | 36915 ft | 523 kts | 75° |
| 2026-05-04 19:26 | 22.64467 | 84.16183 | 36919 ft | 523 kts | 75° |
| 2026-05-04 19:26 | 22.66457 | 84.23753 | 36927 ft | 523 kts | 75° |
| 2026-05-04 19:27 | 22.68444 | 84.31330 | 36961 ft | 523 kts | 75° |
| 2026-05-04 19:27 | 22.70424 | 84.38896 | 36941 ft | 523 kts | 76° |
| 2026-05-04 19:28 | 22.72403 | 84.46474 | 36943 ft | 522 kts | 76° |
| 2026-05-04 19:28 | 22.74375 | 84.54042 | 36948 ft | 522 kts | 76° |
| 2026-05-04 19:29 | 22.76335 | 84.61609 | 36955 ft | 522 kts | 76° |
| 2026-05-04 19:29 | 22.78262 | 84.69194 | 36969 ft | 521 kts | 76° |
| 2026-05-04 19:30 | 22.80176 | 84.76752 | 36954 ft | 519 kts | 76° |
| 2026-05-04 19:30 | 22.82081 | 84.84275 | 36975 ft | 517 kts | 76° |
| 2026-05-04 19:31 | 22.83979 | 84.91776 | 36971 ft | 515 kts | 76° |
| 2026-05-04 19:31 | 22.85869 | 84.99265 | 36977 ft | 514 kts | 76° |
| 2026-05-04 19:32 | 22.87754 | 85.06750 | 36961 ft | 514 kts | 75° |
| 2026-05-04 19:32 | 22.89057 | 85.14347 | 36974 ft | 513 kts | 86° |
| 2026-05-04 19:33 | 22.89095 | 85.22054 | 36980 ft | 511 kts | 96° |
| 2026-05-04 19:33 | 22.88453 | 85.29738 | 36978 ft | 512 kts | 97° |
| 2026-05-04 19:34 | 22.87790 | 85.37433 | 36969 ft | 513 kts | 97° |
| 2026-05-04 19:34 | 22.87163 | 85.45149 | 36974 ft | 514 kts | 96° |
| 2026-05-04 19:35 | 22.86554 | 85.52870 | 36975 ft | 514 kts | 96° |
| 2026-05-04 19:35 | 22.85944 | 85.60582 | 36979 ft | 514 kts | 96° |
| 2026-05-04 19:36 | 22.85329 | 85.68250 | 36971 ft | 513 kts | 96° |
| 2026-05-04 19:36 | 22.84708 | 85.75947 | 36958 ft | 513 kts | 97° |
| 2026-05-04 19:37 | 22.84083 | 85.83646 | 36958 ft | 513 kts | 97° |
| 2026-05-04 19:37 | 22.83455 | 85.91346 | 36951 ft | 512 kts | 97° |
| 2026-05-04 19:38 | 22.82823 | 85.99036 | 36953 ft | 512 kts | 97° |
| 2026-05-04 19:38 | 22.82188 | 86.06724 | 36959 ft | 512 kts | 97° |
| 2026-05-04 19:39 | 22.81550 | 86.14405 | 36964 ft | 511 kts | 97° |
| 2026-05-04 19:39 | 22.80971 | 86.22087 | 36958 ft | 512 kts | 95° |
| 2026-05-04 19:40 | 22.80580 | 86.29786 | 36960 ft | 512 kts | 94° |
| 2026-05-04 19:40 | 22.80213 | 86.37496 | 36953 ft | 513 kts | 94° |
| 2026-05-04 19:41 | 22.79813 | 86.45214 | 36932 ft | 513 kts | 95° |
| 2026-05-04 19:41 | 22.79392 | 86.52927 | 36935 ft | 513 kts | 95° |
| 2026-05-04 19:42 | 22.78963 | 86.60654 | 36925 ft | 514 kts | 94° |
| 2026-05-04 19:42 | 22.78530 | 86.68401 | 36934 ft | 516 kts | 94° |
| 2026-05-04 19:43 | 22.78094 | 86.76178 | 36940 ft | 518 kts | 94° |
| 2026-05-04 19:43 | 22.77652 | 86.83984 | 36927 ft | 520 kts | 94° |
| 2026-05-04 19:44 | 22.77206 | 86.91812 | 36913 ft | 521 kts | 94° |
| 2026-05-04 19:44 | 22.76754 | 86.99650 | 36911 ft | 522 kts | 94° |
| 2026-05-04 19:45 | 22.76298 | 87.07507 | 36913 ft | 523 kts | 94° |
| 2026-05-04 19:45 | 22.75837 | 87.15375 | 36906 ft | 524 kts | 94° |
| 2026-05-04 19:46 | 22.75372 | 87.23257 | 36894 ft | 525 kts | 94° |
| 2026-05-04 19:46 | 22.74901 | 87.31149 | 36899 ft | 525 kts | 94° |
| 2026-05-04 19:47 | 22.74426 | 87.39055 | 36898 ft | 526 kts | 94° |
| 2026-05-04 19:47 | 22.73951 | 87.46913 | 36901 ft | 526 kts | 94° |
| 2026-05-04 19:48 | 22.73468 | 87.54821 | 36897 ft | 527 kts | 94° |
| 2026-05-04 19:48 | 22.72981 | 87.62735 | 36900 ft | 526 kts | 94° |
| 2026-05-04 19:49 | 22.72490 | 87.70641 | 36900 ft | 526 kts | 94° |
| 2026-05-04 19:49 | 22.71997 | 87.78541 | 36885 ft | 526 kts | 94° |
| 2026-05-04 19:50 | 22.71499 | 87.86439 | 36895 ft | 526 kts | 95° |
| 2026-05-04 19:50 | 22.70997 | 87.94337 | 36895 ft | 526 kts | 95° |
| 2026-05-04 19:51 | 22.70491 | 88.02239 | 36883 ft | 526 kts | 95° |
| 2026-05-04 19:51 | 22.69982 | 88.10134 | 36875 ft | 526 kts | 95° |
| 2026-05-04 19:52 | 22.69468 | 88.18034 | 36890 ft | 526 kts | 95° |
| 2026-05-04 19:52 | 22.68950 | 88.25943 | 36907 ft | 527 kts | 95° |
| 2026-05-04 19:53 | 22.68428 | 88.33860 | 36911 ft | 527 kts | 95° |
| 2026-05-04 19:53 | 22.67902 | 88.41780 | 36915 ft | 528 kts | 95° |
| 2026-05-04 19:54 | 22.66990 | 88.49652 | 36921 ft | 526 kts | 102° |
| 2026-05-04 19:54 | 22.65632 | 88.57441 | 36913 ft | 527 kts | 102° |
| 2026-05-04 19:55 | 22.64275 | 88.65237 | 36903 ft | 527 kts | 102° |
| 2026-05-04 19:55 | 22.62956 | 88.73043 | 36893 ft | 528 kts | 102° |
| 2026-05-04 19:56 | 22.61643 | 88.80861 | 36875 ft | 528 kts | 102° |
| 2026-05-04 19:56 | 22.60320 | 88.88679 | 36882 ft | 528 kts | 102° |
| 2026-05-04 19:57 | 22.59082 | 88.96513 | 36868 ft | 529 kts | 98° |
| 2026-05-04 19:57 | 22.58201 | 89.04417 | 36876 ft | 529 kts | 97° |
| 2026-05-04 19:58 | 22.57377 | 89.12328 | 36869 ft | 530 kts | 97° |
| 2026-05-04 19:58 | 22.56527 | 89.20249 | 36874 ft | 530 kts | 98° |
| 2026-05-04 19:59 | 22.55658 | 89.28109 | 36870 ft | 530 kts | 98° |
| 2026-05-04 19:59 | 22.54773 | 89.36023 | 36874 ft | 530 kts | 98° |
| 2026-05-04 20:00 | 22.53884 | 89.43941 | 36877 ft | 530 kts | 98° |
| 2026-05-04 20:00 | 22.52992 | 89.51864 | 36877 ft | 531 kts | 98° |
| 2026-05-04 20:01 | 22.52098 | 89.59784 | 36884 ft | 531 kts | 98° |
| 2026-05-04 20:01 | 22.51199 | 89.67706 | 36882 ft | 531 kts | 98° |
| 2026-05-04 20:02 | 22.50297 | 89.75622 | 36877 ft | 531 kts | 98° |
| 2026-05-04 20:02 | 22.49544 | 89.82206 | 36885 ft | 531 kts | 98° |
| 2026-05-04 20:03 | 22.48634 | 89.90123 | 36888 ft | 530 kts | 98° |
| 2026-05-04 20:03 | 22.47721 | 89.98036 | 36879 ft | 530 kts | 98° |
| 2026-05-04 20:04 | 22.46805 | 90.05938 | 36889 ft | 530 kts | 98° |
| 2026-05-04 20:04 | 22.45885 | 90.13845 | 36886 ft | 530 kts | 98° |
| 2026-05-04 20:05 | 22.44962 | 90.21736 | 36880 ft | 529 kts | 98° |
| 2026-05-04 20:05 | 22.44037 | 90.29615 | 36880 ft | 528 kts | 98° |
| 2026-05-04 20:06 | 22.43110 | 90.37478 | 36888 ft | 527 kts | 98° |
| 2026-05-04 20:06 | 22.42180 | 90.45332 | 36882 ft | 526 kts | 98° |
| 2026-05-04 20:07 | 22.41248 | 90.53171 | 36890 ft | 526 kts | 98° |
| 2026-05-04 20:07 | 22.40312 | 90.61005 | 36890 ft | 526 kts | 98° |
| 2026-05-04 20:08 | 22.39372 | 90.68842 | 36881 ft | 526 kts | 98° |
| 2026-05-04 20:08 | 22.38430 | 90.76672 | 36889 ft | 526 kts | 98° |
| 2026-05-04 20:09 | 22.37483 | 90.84504 | 36893 ft | 526 kts | 98° |
| 2026-05-04 20:09 | 22.36531 | 90.92343 | 36885 ft | 526 kts | 98° |
| 2026-05-04 20:10 | 22.35576 | 91.00175 | 36887 ft | 526 kts | 98° |
| 2026-05-04 20:10 | 22.34617 | 91.08014 | 36881 ft | 526 kts | 98° |
| 2026-05-04 20:11 | 22.33654 | 91.15852 | 36886 ft | 526 kts | 98° |
| 2026-05-04 20:11 | 22.32688 | 91.23683 | 36878 ft | 526 kts | 99° |
| 2026-05-04 20:12 | 22.31718 | 91.31520 | 36877 ft | 526 kts | 99° |
| 2026-05-04 20:12 | 22.30747 | 91.39349 | 36881 ft | 526 kts | 98° |
| 2026-05-04 20:13 | 22.29848 | 91.47193 | 36890 ft | 526 kts | 98° |
| 2026-05-04 20:13 | 22.28977 | 91.55032 | 36890 ft | 526 kts | 98° |
| 2026-05-04 20:14 | 22.28091 | 91.62867 | 36881 ft | 526 kts | 98° |
| 2026-05-04 20:14 | 22.27193 | 91.70700 | 36889 ft | 525 kts | 98° |
| 2026-05-04 20:15 | 22.26308 | 91.78531 | 36895 ft | 525 kts | 96° |
| 2026-05-04 20:15 | 22.26253 | 91.86414 | 36892 ft | 526 kts | 85° |
| 2026-05-04 20:16 | 22.27290 | 91.94225 | 36895 ft | 526 kts | 81° |
| 2026-05-04 20:16 | 22.28436 | 92.01971 | 36903 ft | 526 kts | 81° |
| 2026-05-04 20:17 | 22.29536 | 92.09833 | 36886 ft | 526 kts | 81° |
| 2026-05-04 20:17 | 22.30592 | 92.17595 | 36898 ft | 526 kts | 81° |
| 2026-05-04 20:18 | 22.31656 | 92.25405 | 36896 ft | 526 kts | 81° |
| 2026-05-04 20:18 | 22.32725 | 92.33221 | 36905 ft | 526 kts | 81° |
| 2026-05-04 20:19 | 22.33800 | 92.41036 | 36908 ft | 526 kts | 81° |
| 2026-05-04 20:19 | 22.34869 | 92.48849 | 36915 ft | 526 kts | 81° |
| 2026-05-04 20:20 | 22.35933 | 92.56663 | 36908 ft | 526 kts | 81° |
| 2026-05-04 20:20 | 22.36993 | 92.64476 | 36925 ft | 526 kts | 81° |
| 2026-05-04 20:21 | 22.38050 | 92.72297 | 36915 ft | 526 kts | 81° |
| 2026-05-04 20:21 | 22.39631 | 92.84013 | 36932 ft | 526 kts | 81° |
| 2026-05-04 20:22 | 22.40684 | 92.91837 | 36959 ft | 527 kts | 81° |
| 2026-05-04 20:22 | 22.41733 | 92.99663 | 36963 ft | 526 kts | 81° |
| 2026-05-04 20:23 | 22.42778 | 93.07493 | 36982 ft | 526 kts | 81° |
| 2026-05-04 20:23 | 22.43817 | 93.15305 | 36989 ft | 524 kts | 81° |
| 2026-05-04 20:24 | 22.44851 | 93.23108 | 37011 ft | 525 kts | 81° |
| 2026-05-04 20:24 | 22.45883 | 93.30923 | 36996 ft | 526 kts | 81° |
| 2026-05-04 20:25 | 22.46912 | 93.38749 | 37010 ft | 526 kts | 81° |
| 2026-05-04 20:25 | 22.47937 | 93.46574 | 37005 ft | 526 kts | 81° |
| 2026-05-04 20:26 | 22.48960 | 93.54412 | 36977 ft | 526 kts | 82° |
| 2026-05-04 20:26 | 22.49978 | 93.62247 | 36994 ft | 526 kts | 82° |
| 2026-05-04 20:27 | 22.50992 | 93.70082 | 36993 ft | 526 kts | 82° |
| 2026-05-04 20:27 | 22.51997 | 93.77873 | 36992 ft | 526 kts | 82° |
| 2026-05-04 20:28 | 22.53004 | 93.85718 | 36968 ft | 527 kts | 82° |
| 2026-05-04 20:28 | 22.54009 | 93.93567 | 36961 ft | 527 kts | 82° |
| 2026-05-04 20:29 | 22.55010 | 94.01420 | 36929 ft | 528 kts | 82° |
| 2026-05-04 20:29 | 22.56010 | 94.09283 | 36936 ft | 527 kts | 82° |
| 2026-05-04 20:30 | 22.57003 | 94.17136 | 36923 ft | 527 kts | 82° |
| 2026-05-04 20:30 | 22.57991 | 94.24982 | 36917 ft | 526 kts | 82° |
| 2026-05-04 20:31 | 22.58975 | 94.32823 | 36913 ft | 525 kts | 82° |
| 2026-05-04 20:31 | 22.59953 | 94.40655 | 36920 ft | 525 kts | 82° |
| 2026-05-04 20:32 | 22.60927 | 94.48472 | 36908 ft | 524 kts | 82° |
| 2026-05-04 20:32 | 22.61895 | 94.56285 | 36913 ft | 524 kts | 82° |
| 2026-05-04 20:33 | 22.62859 | 94.64100 | 36899 ft | 524 kts | 82° |
| 2026-05-04 20:33 | 22.63821 | 94.71917 | 36898 ft | 524 kts | 82° |
| 2026-05-04 20:34 | 22.64777 | 94.79730 | 36887 ft | 524 kts | 82° |
| 2026-05-04 20:34 | 22.65731 | 94.87547 | 36881 ft | 524 kts | 82° |
| 2026-05-04 20:35 | 22.66681 | 94.95368 | 36875 ft | 524 kts | 82° |
| 2026-05-04 20:35 | 22.67626 | 95.03188 | 36881 ft | 524 kts | 82° |
| 2026-05-04 20:36 | 22.68567 | 95.11002 | 36878 ft | 523 kts | 82° |
| 2026-05-04 20:36 | 22.69505 | 95.18817 | 36870 ft | 523 kts | 82° |
| 2026-05-04 20:37 | 22.70437 | 95.26624 | 36879 ft | 523 kts | 82° |
| 2026-05-04 20:37 | 22.71368 | 95.34448 | 36874 ft | 524 kts | 82° |
| 2026-05-04 20:38 | 22.72294 | 95.42272 | 36870 ft | 524 kts | 82° |
| 2026-05-04 20:38 | 22.73211 | 95.50045 | 36867 ft | 524 kts | 82° |
| 2026-05-04 20:39 | 22.74137 | 95.57928 | 36859 ft | 524 kts | 82° |
| 2026-05-04 20:39 | 22.75047 | 95.65711 | 36867 ft | 524 kts | 82° |
| 2026-05-04 20:40 | 22.75960 | 95.73554 | 36854 ft | 524 kts | 82° |
| 2026-05-04 20:40 | 22.76869 | 95.81391 | 36875 ft | 524 kts | 82° |
| 2026-05-04 20:41 | 22.77773 | 95.89226 | 36871 ft | 524 kts | 82° |
| 2026-05-04 20:41 | 22.78673 | 95.97056 | 36885 ft | 524 kts | 82° |
| 2026-05-04 20:42 | 22.79568 | 96.04886 | 36880 ft | 524 kts | 82° |
| 2026-05-04 20:42 | 22.80460 | 96.12713 | 36904 ft | 523 kts | 82° |
| 2026-05-04 20:43 | 22.81348 | 96.20541 | 36901 ft | 523 kts | 82° |
| 2026-05-04 20:43 | 22.82230 | 96.28357 | 36924 ft | 522 kts | 82° |
| 2026-05-04 20:44 | 22.83110 | 96.36176 | 36913 ft | 522 kts | 82° |
| 2026-05-04 20:44 | 22.83982 | 96.43974 | 36939 ft | 522 kts | 82° |
| 2026-05-04 20:45 | 22.84849 | 96.51778 | 36925 ft | 521 kts | 82° |
| 2026-05-04 20:45 | 22.85715 | 96.59571 | 36943 ft | 521 kts | 82° |
| 2026-05-04 20:46 | 22.86577 | 96.67369 | 36946 ft | 520 kts | 82° |
| 2026-05-04 20:46 | 22.87432 | 96.75155 | 36952 ft | 521 kts | 82° |
| 2026-05-04 20:47 | 22.88286 | 96.82959 | 36955 ft | 521 kts | 83° |
| 2026-05-04 20:47 | 22.89135 | 96.90757 | 36958 ft | 521 kts | 83° |
| 2026-05-04 20:48 | 22.89980 | 96.98553 | 36965 ft | 520 kts | 83° |
| 2026-05-04 20:48 | 22.90679 | 97.05032 | 36961 ft | 520 kts | 83° |
| 2026-05-04 20:49 | 22.91516 | 97.12815 | 36962 ft | 519 kts | 83° |
| 2026-05-04 20:49 | 22.92348 | 97.20589 | 36963 ft | 519 kts | 83° |
| 2026-05-04 20:50 | 22.93308 | 97.29618 | 36953 ft | 519 kts | 83° |
| 2026-05-04 20:50 | 22.93998 | 97.36131 | 36972 ft | 519 kts | 83° |
| 2026-05-04 20:51 | 22.94819 | 97.43916 | 36946 ft | 520 kts | 83° |
| 2026-05-04 20:51 | 22.95638 | 97.51712 | 36960 ft | 520 kts | 83° |
| 2026-05-04 20:52 | 22.96454 | 97.59520 | 36942 ft | 521 kts | 83° |
| 2026-05-04 20:52 | 22.97266 | 97.67335 | 36944 ft | 521 kts | 83° |
| 2026-05-04 20:53 | 22.98295 | 97.75113 | 36953 ft | 520 kts | 76° |
| 2026-05-04 20:53 | 23.00438 | 97.82588 | 36950 ft | 518 kts | 68° |
| 2026-05-04 20:54 | 23.03011 | 97.89891 | 36957 ft | 518 kts | 67° |
| 2026-05-04 20:54 | 23.05553 | 97.97165 | 36959 ft | 519 kts | 68° |
| 2026-05-04 20:55 | 23.08071 | 98.04506 | 36971 ft | 519 kts | 68° |
| 2026-05-04 20:55 | 23.10574 | 98.11860 | 36973 ft | 519 kts | 68° |
| 2026-05-04 20:56 | 23.13073 | 98.19215 | 36975 ft | 519 kts | 68° |
| 2026-05-04 20:56 | 23.15570 | 98.26571 | 36981 ft | 519 kts | 68° |
| 2026-05-04 20:57 | 23.18064 | 98.33925 | 36984 ft | 519 kts | 68° |
| 2026-05-04 20:57 | 23.20557 | 98.41289 | 36991 ft | 519 kts | 68° |
| 2026-05-04 20:58 | 23.23047 | 98.48662 | 36991 ft | 520 kts | 68° |
| 2026-05-04 20:58 | 23.25540 | 98.56051 | 36980 ft | 520 kts | 68° |
| 2026-05-04 20:59 | 23.28027 | 98.63438 | 36970 ft | 521 kts | 68° |
| 2026-05-04 20:59 | 23.30516 | 98.70842 | 36980 ft | 521 kts | 68° |
| 2026-05-04 21:00 | 23.32998 | 98.78244 | 36988 ft | 521 kts | 68° |
| 2026-05-04 21:00 | 23.35479 | 98.85652 | 36996 ft | 521 kts | 68° |
| 2026-05-04 21:01 | 23.37953 | 98.93065 | 36993 ft | 522 kts | 68° |
| 2026-05-04 21:01 | 23.40313 | 99.00545 | 37003 ft | 522 kts | 69° |
| 2026-05-04 21:02 | 23.42622 | 99.08033 | 36989 ft | 522 kts | 69° |
| 2026-05-04 21:02 | 23.44945 | 99.15519 | 37009 ft | 522 kts | 69° |
| 2026-05-04 21:03 | 23.47277 | 99.23004 | 37000 ft | 522 kts | 69° |
| 2026-05-04 21:03 | 23.49607 | 99.30499 | 37002 ft | 523 kts | 69° |
| 2026-05-04 21:04 | 23.51938 | 99.37991 | 37031 ft | 522 kts | 68° |
| 2026-05-04 21:04 | 23.54932 | 99.45144 | 37020 ft | 517 kts | 57° |
| 2026-05-04 21:05 | 23.58539 | 99.51927 | 37022 ft | 518 kts | 56° |
| 2026-05-04 21:05 | 23.62160 | 99.58728 | 37028 ft | 519 kts | 57° |
| 2026-05-04 21:06 | 23.65745 | 99.65568 | 37030 ft | 520 kts | 57° |
| 2026-05-04 21:06 | 23.69315 | 99.72431 | 37036 ft | 520 kts | 57° |
| 2026-05-04 21:07 | 23.72878 | 99.79297 | 37025 ft | 520 kts | 57° |
| 2026-05-04 21:07 | 23.76422 | 99.86123 | 37060 ft | 521 kts | 57° |
| 2026-05-04 21:08 | 23.79993 | 99.93008 | 37055 ft | 521 kts | 57° |
| 2026-05-04 21:08 | 23.83568 | 99.99921 | 37039 ft | 522 kts | 57° |
| 2026-05-04 21:09 | 23.87140 | 100.06833 | 37024 ft | 523 kts | 57° |
| 2026-05-04 21:09 | 23.90710 | 100.13749 | 37044 ft | 523 kts | 57° |
| 2026-05-04 21:10 | 23.94281 | 100.20678 | 37047 ft | 524 kts | 57° |
| 2026-05-04 21:10 | 23.97851 | 100.27615 | 37051 ft | 524 kts | 57° |
| 2026-05-04 21:11 | 24.01419 | 100.34555 | 37055 ft | 523 kts | 57° |
| 2026-05-04 21:11 | 24.04978 | 100.41494 | 37078 ft | 524 kts | 57° |
| 2026-05-04 21:12 | 24.08546 | 100.48453 | 37087 ft | 524 kts | 57° |
| 2026-05-04 21:12 | 24.12115 | 100.55430 | 37082 ft | 526 kts | 57° |
| 2026-05-04 21:13 | 24.15658 | 100.62441 | 37093 ft | 527 kts | 57° |
| 2026-05-04 21:13 | 24.19173 | 100.69474 | 37094 ft | 525 kts | 57° |
| 2026-05-04 21:14 | 24.22679 | 100.76498 | 37107 ft | 525 kts | 57° |
| 2026-05-04 21:14 | 24.26186 | 100.83519 | 37108 ft | 525 kts | 57° |
| 2026-05-04 21:15 | 24.29690 | 100.90540 | 37106 ft | 525 kts | 57° |
| 2026-05-04 21:15 | 24.33189 | 100.97563 | 37135 ft | 525 kts | 57° |
| 2026-05-04 21:16 | 24.36692 | 101.04601 | 37135 ft | 526 kts | 57° |
| 2026-05-04 21:16 | 24.40193 | 101.11646 | 37137 ft | 526 kts | 57° |
| 2026-05-04 21:17 | 24.43688 | 101.18693 | 37134 ft | 526 kts | 57° |
| 2026-05-04 21:17 | 24.47181 | 101.25748 | 37133 ft | 526 kts | 57° |
| 2026-05-04 21:18 | 24.50673 | 101.32807 | 37147 ft | 526 kts | 57° |
| 2026-05-04 21:18 | 24.54160 | 101.39872 | 37143 ft | 526 kts | 57° |
| 2026-05-04 21:19 | 24.57648 | 101.46945 | 37154 ft | 526 kts | 57° |
| 2026-05-04 21:19 | 24.61126 | 101.54007 | 37145 ft | 525 kts | 57° |
| 2026-05-04 21:20 | 24.64560 | 101.61023 | 37170 ft | 525 kts | 57° |
| 2026-05-04 21:20 | 24.67985 | 101.68110 | 37149 ft | 525 kts | 57° |
| 2026-05-04 21:21 | 24.71401 | 101.75190 | 37189 ft | 524 kts | 57° |
| 2026-05-04 21:21 | 24.74820 | 101.82273 | 37185 ft | 525 kts | 57° |
| 2026-05-04 21:22 | 24.78245 | 101.89378 | 37180 ft | 526 kts | 57° |
| 2026-05-04 21:22 | 24.81672 | 101.96499 | 37202 ft | 526 kts | 57° |
| 2026-05-04 21:23 | 24.85093 | 102.03618 | 37204 ft | 526 kts | 57° |
| 2026-05-04 21:23 | 24.88511 | 102.10742 | 37215 ft | 526 kts | 57° |
| 2026-05-04 21:24 | 24.91921 | 102.17864 | 37216 ft | 524 kts | 57° |
| 2026-05-04 21:24 | 24.95323 | 102.24974 | 37212 ft | 525 kts | 57° |
| 2026-05-04 21:25 | 24.98720 | 102.32087 | 37220 ft | 524 kts | 57° |
| 2026-05-04 21:25 | 25.02108 | 102.39193 | 37244 ft | 523 kts | 57° |
| 2026-05-04 21:26 | 25.05457 | 102.46318 | 37223 ft | 524 kts | 62° |
| 2026-05-04 21:26 | 25.06476 | 102.50197 | 37248 ft | 533 kts | 80° |
| 2026-05-04 21:26 | 25.06515 | 102.54304 | 37264 ft | 539 kts | 96° |
| 2026-05-04 21:27 | 25.05647 | 102.58325 | 37245 ft | 541 kts | 113° |
| 2026-05-04 21:27 | 25.04005 | 102.62027 | 37282 ft | 538 kts | 118° |
| 2026-05-04 21:27 | 25.00536 | 102.69373 | 37271 ft | 542 kts | 118° |
| 2026-05-04 21:28 | 24.97175 | 102.76830 | 37270 ft | 545 kts | 117° |
| 2026-05-04 21:28 | 24.93853 | 102.84356 | 37268 ft | 547 kts | 117° |
| 2026-05-04 21:29 | 24.90514 | 102.91901 | 37257 ft | 548 kts | 116° |
| 2026-05-04 21:29 | 24.87206 | 102.99470 | 37253 ft | 548 kts | 116° |
| 2026-05-04 21:30 | 24.83909 | 103.07022 | 37235 ft | 547 kts | 116° |
| 2026-05-04 21:30 | 24.80633 | 103.14494 | 37227 ft | 545 kts | 116° |
| 2026-05-04 21:31 | 24.75691 | 103.25733 | 37217 ft | 543 kts | 116° |
| 2026-05-04 21:32 | 24.72397 | 103.33210 | 37212 ft | 543 kts | 116° |
| 2026-05-04 21:32 | 24.69098 | 103.40686 | 37200 ft | 543 kts | 117° |
| 2026-05-04 21:33 | 24.65793 | 103.48163 | 37209 ft | 544 kts | 117° |
| 2026-05-04 21:33 | 24.62482 | 103.55642 | 37177 ft | 544 kts | 117° |
| 2026-05-04 21:34 | 24.59170 | 103.63115 | 37190 ft | 543 kts | 117° |
| 2026-05-04 21:34 | 24.55858 | 103.70584 | 37171 ft | 545 kts | 116° |
| 2026-05-04 21:35 | 24.53566 | 103.77029 | 37169 ft | 546 kts | 107° |
| 2026-05-04 21:35 | 24.51512 | 103.86511 | 37164 ft | 547 kts | 102° |
| 2026-05-04 21:36 | 24.50133 | 103.93297 | 37140 ft | 548 kts | 102° |
| 2026-05-04 21:36 | 24.48427 | 104.01456 | 37142 ft | 548 kts | 102° |
| 2026-05-04 21:37 | 24.46683 | 104.09593 | 37124 ft | 548 kts | 102° |
| 2026-05-04 21:37 | 24.44931 | 104.17746 | 37346 ft | 551 kts | 102° |
| 2026-05-04 21:37 | 24.44052 | 104.21829 | 37803 ft | 548 kts | 102° |
| 2026-05-04 21:38 | 24.43178 | 104.25885 | 38295 ft | 544 kts | 102° |
| 2026-05-04 21:38 | 24.42307 | 104.29916 | 38712 ft | 542 kts | 102° |
| 2026-05-04 21:38 | 24.41440 | 104.33931 | 39061 ft | 540 kts | 102° |
| 2026-05-04 21:39 | 24.39702 | 104.41963 | 39114 ft | 541 kts | 102° |
| 2026-05-04 21:39 | 24.37958 | 104.50000 | 39093 ft | 542 kts | 103° |
| 2026-05-04 21:40 | 24.36213 | 104.58028 | 39097 ft | 541 kts | 103° |
| 2026-05-04 21:40 | 24.34471 | 104.66001 | 39065 ft | 541 kts | 103° |
| 2026-05-04 21:41 | 24.32709 | 104.74081 | 39052 ft | 541 kts | 103° |
| 2026-05-04 21:41 | 24.30962 | 104.82039 | 39057 ft | 541 kts | 103° |
| 2026-05-04 21:42 | 24.29202 | 104.90058 | 39061 ft | 541 kts | 103° |
| 2026-05-04 21:42 | 24.27434 | 104.98073 | 39036 ft | 541 kts | 103° |
| 2026-05-04 21:43 | 24.25667 | 105.06081 | 39026 ft | 540 kts | 103° |
| 2026-05-04 21:43 | 24.23897 | 105.14052 | 39041 ft | 538 kts | 103° |
| 2026-05-04 21:44 | 24.22130 | 105.22010 | 39032 ft | 538 kts | 103° |
| 2026-05-04 21:44 | 24.20255 | 105.29940 | 39048 ft | 538 kts | 104° |
| 2026-05-04 21:45 | 24.18306 | 105.37855 | 39022 ft | 538 kts | 104° |
| 2026-05-04 21:45 | 24.16376 | 105.45763 | 39040 ft | 538 kts | 104° |
| 2026-05-04 21:46 | 24.14450 | 105.53681 | 39026 ft | 537 kts | 104° |
| 2026-05-04 21:46 | 24.12528 | 105.61588 | 39038 ft | 538 kts | 104° |
| 2026-05-04 21:47 | 24.10592 | 105.69509 | 39036 ft | 540 kts | 104° |
| 2026-05-04 21:47 | 24.08827 | 105.77513 | 39013 ft | 542 kts | 101° |
| 2026-05-04 21:48 | 24.07298 | 105.85579 | 39008 ft | 541 kts | 101° |
| 2026-05-04 21:48 | 24.05756 | 105.93628 | 39024 ft | 540 kts | 101° |
| 2026-05-04 21:49 | 24.04158 | 106.01662 | 39004 ft | 540 kts | 102° |
| 2026-05-04 21:49 | 24.02554 | 106.09630 | 39005 ft | 540 kts | 102° |
| 2026-05-04 21:50 | 24.00928 | 106.17689 | 39011 ft | 539 kts | 101° |
| 2026-05-04 21:50 | 23.99324 | 106.25632 | 39002 ft | 538 kts | 102° |
| 2026-05-04 21:51 | 23.97709 | 106.33617 | 39019 ft | 538 kts | 101° |
| 2026-05-04 21:51 | 23.96090 | 106.41601 | 39003 ft | 538 kts | 102° |
| 2026-05-04 21:52 | 23.94464 | 106.49595 | 39010 ft | 539 kts | 102° |
| 2026-05-04 21:52 | 23.92835 | 106.57592 | 39023 ft | 539 kts | 101° |
| 2026-05-04 21:53 | 23.91818 | 106.65691 | 39021 ft | 538 kts | 92° |
| 2026-05-04 21:53 | 23.91339 | 106.73854 | 39003 ft | 538 kts | 92° |
| 2026-05-04 21:54 | 23.90861 | 106.82014 | 39012 ft | 538 kts | 92° |
| 2026-05-04 21:54 | 23.90334 | 106.90177 | 39007 ft | 539 kts | 92° |
| 2026-05-04 21:55 | 23.89783 | 106.98338 | 39020 ft | 538 kts | 92° |
| 2026-05-04 21:55 | 23.89226 | 107.06500 | 39017 ft | 539 kts | 93° |
| 2026-05-04 21:56 | 23.88669 | 107.14662 | 39002 ft | 539 kts | 93° |
| 2026-05-04 21:56 | 23.88110 | 107.22816 | 39007 ft | 538 kts | 93° |
| 2026-05-04 21:57 | 23.87547 | 107.30957 | 39006 ft | 537 kts | 93° |
| 2026-05-04 21:57 | 23.86981 | 107.39079 | 39003 ft | 536 kts | 93° |
| 2026-05-04 21:58 | 23.86411 | 107.47192 | 39013 ft | 535 kts | 93° |
| 2026-05-04 21:58 | 23.85838 | 107.55289 | 39010 ft | 534 kts | 93° |
| 2026-05-04 21:59 | 23.85261 | 107.63381 | 39005 ft | 534 kts | 93° |
| 2026-05-04 21:59 | 23.84682 | 107.71456 | 39007 ft | 533 kts | 93° |
| 2026-05-04 22:00 | 23.84102 | 107.79476 | 39025 ft | 533 kts | 93° |
| 2026-05-04 22:00 | 23.83527 | 107.87590 | 39032 ft | 532 kts | 92° |
| 2026-05-04 22:01 | 23.83125 | 107.95672 | 39014 ft | 533 kts | 91° |
| 2026-05-04 22:01 | 23.82745 | 108.03759 | 39023 ft | 533 kts | 92° |
| 2026-05-04 22:02 | 23.82329 | 108.11848 | 39024 ft | 534 kts | 92° |
| 2026-05-04 22:02 | 23.81899 | 108.19940 | 39023 ft | 534 kts | 92° |
| 2026-05-04 22:03 | 23.81445 | 108.27990 | 39018 ft | 535 kts | 92° |
| 2026-05-04 22:03 | 23.80978 | 108.36143 | 39010 ft | 534 kts | 92° |
| 2026-05-04 22:04 | 23.80514 | 108.44184 | 39026 ft | 534 kts | 92° |
| 2026-05-04 22:04 | 23.80047 | 108.52287 | 39003 ft | 535 kts | 92° |
| 2026-05-04 22:05 | 23.79574 | 108.60400 | 39008 ft | 535 kts | 92° |
| 2026-05-04 22:05 | 23.79097 | 108.68513 | 39008 ft | 535 kts | 92° |
| 2026-05-04 22:06 | 23.78616 | 108.76626 | 38997 ft | 535 kts | 92° |
| 2026-05-04 22:06 | 23.78130 | 108.84740 | 38999 ft | 535 kts | 92° |
| 2026-05-04 22:07 | 23.77641 | 108.92837 | 39004 ft | 535 kts | 92° |
| 2026-05-04 22:07 | 23.77147 | 109.00943 | 39002 ft | 535 kts | 92° |
| 2026-05-04 22:08 | 23.76650 | 109.09050 | 39004 ft | 535 kts | 92° |
| 2026-05-04 22:08 | 23.75907 | 109.17124 | 39004 ft | 536 kts | 101° |
| 2026-05-04 22:09 | 23.74305 | 109.25061 | 39009 ft | 535 kts | 103° |
| 2026-05-04 22:09 | 23.72629 | 109.32987 | 39003 ft | 536 kts | 102° |
| 2026-05-04 22:10 | 23.71008 | 109.40918 | 39005 ft | 536 kts | 102° |
| 2026-05-04 22:10 | 23.69406 | 109.48861 | 39004 ft | 536 kts | 102° |
| 2026-05-04 22:11 | 23.67802 | 109.56776 | 39000 ft | 536 kts | 102° |
| 2026-05-04 22:11 | 23.66183 | 109.64718 | 39005 ft | 536 kts | 102° |
| 2026-05-04 22:12 | 23.64551 | 109.72647 | 39012 ft | 536 kts | 102° |
| 2026-05-04 22:12 | 23.62912 | 109.80581 | 39017 ft | 536 kts | 102° |
| 2026-05-04 22:13 | 23.61269 | 109.88522 | 39014 ft | 537 kts | 102° |
| 2026-05-04 22:13 | 23.59629 | 109.96458 | 39029 ft | 536 kts | 103° |
| 2026-05-04 22:14 | 23.57987 | 110.04333 | 39016 ft | 536 kts | 103° |
| 2026-05-04 22:14 | 23.56334 | 110.12261 | 39027 ft | 536 kts | 103° |
| 2026-05-04 22:15 | 23.54679 | 110.20187 | 39019 ft | 537 kts | 103° |
| 2026-05-04 22:15 | 23.53018 | 110.28119 | 39018 ft | 537 kts | 103° |
| 2026-05-04 22:16 | 23.51353 | 110.36046 | 39013 ft | 537 kts | 103° |
| 2026-05-04 22:16 | 23.49722 | 110.43982 | 39010 ft | 537 kts | 102° |
| 2026-05-04 22:17 | 23.48120 | 110.51919 | 39011 ft | 537 kts | 102° |
| 2026-05-04 22:17 | 23.46506 | 110.59860 | 39011 ft | 537 kts | 103° |
| 2026-05-04 22:18 | 23.44881 | 110.67801 | 39012 ft | 537 kts | 103° |
| 2026-05-04 22:18 | 23.43246 | 110.75730 | 39012 ft | 537 kts | 103° |
| 2026-05-04 22:19 | 23.41565 | 110.83649 | 39012 ft | 537 kts | 103° |
| 2026-05-04 22:19 | 23.39875 | 110.91569 | 39010 ft | 537 kts | 103° |
| 2026-05-04 22:20 | 23.38189 | 110.99488 | 39016 ft | 537 kts | 103° |
| 2026-05-04 22:20 | 23.36501 | 111.07408 | 39013 ft | 537 kts | 103° |
| 2026-05-04 22:21 | 23.34807 | 111.15335 | 39018 ft | 538 kts | 103° |
| 2026-05-04 22:21 | 23.33177 | 111.23281 | 39016 ft | 538 kts | 102° |
| 2026-05-04 22:22 | 23.31587 | 111.31231 | 39017 ft | 538 kts | 102° |
| 2026-05-04 22:22 | 23.29979 | 111.39183 | 39018 ft | 538 kts | 102° |
| 2026-05-04 22:23 | 23.28359 | 111.47126 | 39018 ft | 538 kts | 103° |
| 2026-05-04 22:23 | 23.27009 | 111.53728 | 39018 ft | 538 kts | 103° |
| 2026-05-04 22:24 | 23.25326 | 111.61653 | 39021 ft | 538 kts | 103° |
| 2026-05-04 22:24 | 23.23618 | 111.69570 | 39016 ft | 538 kts | 103° |
| 2026-05-04 22:25 | 23.21919 | 111.77484 | 39012 ft | 538 kts | 103° |
| 2026-05-04 22:25 | 23.20226 | 111.85399 | 39017 ft | 538 kts | 103° |
| 2026-05-04 22:26 | 23.18579 | 111.93327 | 39027 ft | 538 kts | 103° |
| 2026-05-04 22:26 | 23.16944 | 112.01257 | 39019 ft | 538 kts | 103° |
| 2026-05-04 22:27 | 23.15297 | 112.09187 | 39019 ft | 538 kts | 103° |
| 2026-05-04 22:27 | 23.13642 | 112.17106 | 39017 ft | 538 kts | 103° |
| 2026-05-04 22:28 | 23.11983 | 112.25025 | 39011 ft | 537 kts | 103° |
| 2026-05-04 22:28 | 23.10322 | 112.32937 | 39019 ft | 537 kts | 103° |
| 2026-05-04 22:29 | 23.08658 | 112.40842 | 39016 ft | 537 kts | 103° |
| 2026-05-04 22:29 | 23.07064 | 112.48761 | 39023 ft | 537 kts | 99° |
| 2026-05-04 22:30 | 23.06346 | 112.56822 | 39042 ft | 536 kts | 93° |
| 2026-05-04 22:30 | 23.05886 | 112.64909 | 39011 ft | 537 kts | 93° |
| 2026-05-04 22:31 | 23.05381 | 112.73001 | 39020 ft | 537 kts | 93° |
| 2026-05-04 22:31 | 23.04832 | 112.81097 | 39018 ft | 538 kts | 94° |
| 2026-05-04 22:32 | 23.04276 | 112.89147 | 39023 ft | 538 kts | 94° |
| 2026-05-04 22:32 | 23.03717 | 112.97254 | 39019 ft | 539 kts | 94° |
| 2026-05-04 22:33 | 23.03156 | 113.05366 | 39013 ft | 539 kts | 94° |
| 2026-05-04 22:33 | 23.01864 | 113.13299 | 39019 ft | 533 kts | 116° |
| 2026-05-04 22:33 | 22.99972 | 113.16720 | 39017 ft | 526 kts | 134° |
| 2026-05-04 22:34 | 22.97418 | 113.19507 | 38930 ft | 515 kts | 146° |
| 2026-05-04 22:34 | 22.94505 | 113.21667 | 38604 ft | 499 kts | 158° |
| 2026-05-04 22:34 | 22.91329 | 113.23046 | 37720 ft | 489 kts | 169° |
| 2026-05-04 22:34 | 22.88046 | 113.24103 | 36709 ft | 496 kts | 170° |
| 2026-05-04 22:35 | 22.84714 | 113.25157 | 35779 ft | 501 kts | 170° |
| 2026-05-04 22:35 | 22.81354 | 113.26249 | 34923 ft | 505 kts | 170° |
| 2026-05-04 22:35 | 22.77992 | 113.27382 | 34110 ft | 507 kts | 169° |
| 2026-05-04 22:35 | 22.74631 | 113.28544 | 33330 ft | 506 kts | 169° |
| 2026-05-04 22:36 | 22.71292 | 113.29712 | 32748 ft | 501 kts | 169° |
| 2026-05-04 22:36 | 22.68001 | 113.30863 | 32252 ft | 494 kts | 169° |
| 2026-05-04 22:36 | 22.64746 | 113.31994 | 31733 ft | 488 kts | 169° |
| 2026-05-04 22:36 | 22.61525 | 113.33108 | 31177 ft | 485 kts | 169° |
| 2026-05-04 22:37 | 22.58322 | 113.34216 | 30604 ft | 481 kts | 169° |
| 2026-05-04 22:37 | 22.55156 | 113.35313 | 30157 ft | 476 kts | 169° |
| 2026-05-04 22:37 | 22.52020 | 113.36401 | 29615 ft | 471 kts | 169° |
| 2026-05-04 22:37 | 22.48915 | 113.37476 | 29041 ft | 467 kts | 169° |
| 2026-05-04 22:38 | 22.45835 | 113.38542 | 28472 ft | 463 kts | 169° |
| 2026-05-04 22:38 | 22.42779 | 113.39598 | 27931 ft | 459 kts | 169° |
| 2026-05-04 22:38 | 22.39753 | 113.40645 | 27408 ft | 455 kts | 169° |
| 2026-05-04 22:38 | 22.36755 | 113.41680 | 26902 ft | 450 kts | 169° |
| 2026-05-04 22:39 | 22.33782 | 113.42706 | 26377 ft | 447 kts | 169° |
| 2026-05-04 22:39 | 22.30838 | 113.43723 | 25899 ft | 443 kts | 169° |
| 2026-05-04 22:39 | 22.27955 | 113.44721 | 25244 ft | 424 kts | 168° |
| 2026-05-04 22:39 | 22.25210 | 113.45670 | 24147 ft | 417 kts | 168° |
| 2026-05-04 22:40 | 22.22433 | 113.46622 | 23080 ft | 422 kts | 168° |
| 2026-05-04 22:40 | 22.19662 | 113.47596 | 22655 ft | 418 kts | 167° |
| 2026-05-04 22:40 | 22.16914 | 113.48595 | 22139 ft | 415 kts | 167° |
| 2026-05-04 22:40 | 22.14186 | 113.49595 | 21657 ft | 412 kts | 166° |
| 2026-05-04 22:41 | 22.11484 | 113.50585 | 21175 ft | 409 kts | 166° |
| 2026-05-04 22:41 | 22.08798 | 113.51565 | 20698 ft | 406 kts | 166° |
| 2026-05-04 22:41 | 22.06131 | 113.52534 | 20229 ft | 403 kts | 166° |
| 2026-05-04 22:41 | 22.03483 | 113.53494 | 19745 ft | 400 kts | 166° |
| 2026-05-04 22:42 | 22.00851 | 113.54448 | 19275 ft | 398 kts | 165° |
| 2026-05-04 22:42 | 21.98239 | 113.55400 | 18792 ft | 396 kts | 164° |
| 2026-05-04 22:42 | 21.95676 | 113.56481 | 18301 ft | 395 kts | 160° |
| 2026-05-04 22:42 | 21.93167 | 113.57656 | 17781 ft | 392 kts | 159° |
| 2026-05-04 22:43 | 21.90682 | 113.58847 | 17275 ft | 390 kts | 159° |
| 2026-05-04 22:43 | 21.88204 | 113.60024 | 16727 ft | 388 kts | 159° |
| 2026-05-04 22:43 | 21.85739 | 113.61179 | 16253 ft | 384 kts | 160° |
| 2026-05-04 22:43 | 21.83294 | 113.62313 | 15785 ft | 381 kts | 160° |
| 2026-05-04 22:44 | 21.80872 | 113.63429 | 15331 ft | 377 kts | 160° |
| 2026-05-04 22:44 | 21.78467 | 113.64535 | 14879 ft | 374 kts | 160° |
| 2026-05-04 22:44 | 21.76089 | 113.65632 | 14420 ft | 371 kts | 160° |
| 2026-05-04 22:44 | 21.73837 | 113.66903 | 13987 ft | 365 kts | 145° |
| 2026-05-04 22:45 | 21.72134 | 113.68941 | 13501 ft | 373 kts | 123° |
| 2026-05-04 22:45 | 21.71158 | 113.74347 | 12512 ft | 378 kts | 82° |
| 2026-05-04 22:45 | 21.72002 | 113.77009 | 12000 ft | 377 kts | 61° |
| 2026-05-04 22:46 | 21.73601 | 113.79201 | 11565 ft | 368 kts | 42° |
| 2026-05-04 22:46 | 21.75513 | 113.81012 | 11123 ft | 365 kts | 40° |
| 2026-05-04 22:46 | 21.77422 | 113.82803 | 10675 ft | 362 kts | 41° |
| 2026-05-04 22:46 | 21.79265 | 113.84572 | 10266 ft | 343 kts | 41° |
| 2026-05-04 22:47 | 21.80969 | 113.86232 | 9901 ft | 319 kts | 42° |
| 2026-05-04 22:47 | 21.82569 | 113.87795 | 9586 ft | 305 kts | 41° |
| 2026-05-04 22:47 | 21.84296 | 113.89022 | 9245 ft | 295 kts | 18° |
| 2026-05-04 22:47 | 21.86284 | 113.89311 | 8946 ft | 287 kts | 352° |
| 2026-05-04 22:48 | 21.88216 | 113.88836 | 8670 ft | 286 kts | 335° |
| 2026-05-04 22:48 | 21.90025 | 113.87971 | 8368 ft | 287 kts | 331° |
| 2026-05-04 22:48 | 21.91823 | 113.87055 | 8070 ft | 284 kts | 331° |
| 2026-05-04 22:48 | 21.93593 | 113.86150 | 7783 ft | 278 kts | 332° |
| 2026-05-04 22:49 | 21.95329 | 113.85269 | 7483 ft | 273 kts | 332° |
| 2026-05-04 22:49 | 21.97034 | 113.84408 | 7192 ft | 268 kts | 332° |
| 2026-05-04 22:49 | 21.98707 | 113.83568 | 6917 ft | 263 kts | 333° |
| 2026-05-04 22:49 | 22.00352 | 113.82742 | 6640 ft | 259 kts | 333° |
| 2026-05-04 22:50 | 22.01988 | 113.81923 | 6384 ft | 260 kts | 333° |
| 2026-05-04 22:50 | 22.03641 | 113.81097 | 6089 ft | 264 kts | 334° |
| 2026-05-04 22:50 | 22.05305 | 113.80269 | 5791 ft | 262 kts | 334° |
| 2026-05-04 22:50 | 22.06943 | 113.79454 | 5515 ft | 257 kts | 334° |
| 2026-05-04 22:51 | 22.08550 | 113.78653 | 5277 ft | 249 kts | 334° |
| 2026-05-04 22:51 | 22.10086 | 113.77887 | 4996 ft | 240 kts | 334° |
| 2026-05-04 22:51 | 22.11583 | 113.77140 | 4747 ft | 234 kts | 334° |
| 2026-05-04 22:51 | 22.13031 | 113.76418 | 4533 ft | 225 kts | 335° |
| 2026-05-04 22:52 | 22.14432 | 113.75718 | 4263 ft | 219 kts | 335° |
| 2026-05-04 22:52 | 22.15797 | 113.75038 | 4026 ft | 213 kts | 335° |
| 2026-05-04 22:52 | 22.17116 | 113.74378 | 3776 ft | 205 kts | 336° |
| 2026-05-04 22:52 | 22.18392 | 113.73741 | 3566 ft | 200 kts | 336° |
| 2026-05-04 22:53 | 22.19671 | 113.73262 | 3350 ft | 192 kts | 1° |
| 2026-05-04 22:53 | 22.20905 | 113.73677 | 3174 ft | 187 kts | 34° |
| 2026-05-04 22:53 | 22.22050 | 113.74357 | 2999 ft | 194 kts | 31° |
| 2026-05-04 22:53 | 22.23242 | 113.75025 | 2781 ft | 192 kts | 32° |
| 2026-05-04 22:54 | 22.24410 | 113.75683 | 2553 ft | 187 kts | 33° |
| 2026-05-04 22:54 | 22.25312 | 113.76582 | 2348 ft | 174 kts | 68° |
| 2026-05-04 22:54 | 22.25727 | 113.77803 | 2206 ft | 176 kts | 72° |
| 2026-05-04 22:54 | 22.26159 | 113.79053 | 2016 ft | 175 kts | 73° |
| 2026-05-04 22:55 | 22.26551 | 113.80245 | 1816 ft | 161 kts | 73° |
| 2026-05-04 22:55 | 22.26903 | 113.81342 | 1655 ft | 153 kts | 73° |
| 2026-05-04 22:55 | 22.27256 | 113.82440 | 1416 ft | 153 kts | 73° |
| 2026-05-04 22:55 | 22.27587 | 113.83471 | 1248 ft | 139 kts | 73° |
| 2026-05-04 22:56 | 22.27900 | 113.84450 | 1080 ft | 137 kts | 72° |
| 2026-05-04 22:56 | 22.28213 | 113.85423 | 901 ft | 136 kts | 73° |
| 2026-05-04 22:56 | 22.28517 | 113.86372 | 735 ft | 131 kts | 71° |
| 2026-05-04 22:56 | 22.28814 | 113.87292 | 569 ft | 130 kts | 71° |
| 2026-05-04 22:57 | 22.29116 | 113.88228 | 391 ft | 132 kts | 72° |
| 2026-05-04 22:57 | 22.29406 | 113.89158 | 250 ft | 129 kts | 73° |
| 2026-05-04 22:57 | 22.29709 | 113.90087 | 85 ft | 133 kts | 72° |
| 2026-05-04 22:57 | 22.30005 | 113.90995 | 36 ft | 113 kts | 72° |
| 2026-05-04 22:58 | 22.30199 | 113.91604 | 37 ft | 61 kts | 70° |
| 2026-05-04 22:58 | 22.30314 | 113.91963 | 37 ft | 30 kts | 71° |
| 2026-05-04 22:58 | 22.30357 | 113.92101 | 37 ft | 11 kts | 73° |
| 2026-05-04 22:58 | 22.30368 | 113.92183 | 37 ft | 11 kts | 83° |
| 2026-05-04 22:59 | 22.30365 | 113.92267 | 38 ft | 11 kts | 97° |
| 2026-05-04 22:59 | 22.30352 | 113.92341 | 38 ft | 10 kts | 101° |
| 2026-05-04 22:59 | 22.30314 | 113.92396 | 37 ft | 10 kts | 165° |
| 2026-05-04 22:59 | 22.30264 | 113.92353 | 37 ft | 10 kts | 243° |
| 2026-05-04 23:00 | 22.30238 | 113.92284 | 37 ft | 10 kts | 249° |
| 2026-05-04 23:00 | 22.30214 | 113.92214 | 36 ft | 10 kts | 251° |
| 2026-05-04 23:00 | 22.30192 | 113.92141 | 36 ft | 10 kts | 251° |
| 2026-05-04 23:00 | 22.30166 | 113.92069 | 36 ft | 10 kts | 240° |
| 2026-05-04 23:01 | 22.30104 | 113.92042 | 36 ft | 11 kts | 170° |
| 2026-05-04 23:01 | 22.30033 | 113.92065 | 36 ft | 11 kts | 162° |
| 2026-05-04 23:01 | 22.29966 | 113.92089 | 36 ft | 9 kts | 161° |
| 2026-05-04 23:01 | 22.29910 | 113.92109 | 36 ft | 8 kts | 161° |
| 2026-05-04 23:02 | 22.29872 | 113.92123 | 36 ft | 1 kts | 161° |
| 2026-05-04 23:02 | 22.29868 | 113.92124 | 36 ft | 1 kts | 161° |
| 2026-05-04 23:02 | 22.29868 | 113.92125 | 36 ft | 0 kts | 161° |
| 2026-05-04 23:06 | 22.29868 | 113.92124 | 36 ft | 0 kts | 161° |